sensor_id;sensor_type;location;lat;lon;timestamp;temperature;humidity
74520;DHT22;63002;48.134;-1.948;2023-07-09T05:01:10;25.40;54.50
74520;DHT22;63002;48.134;-1.948;2023-07-09T05:03:36;25.30;54.50
74520;DHT22;63002;48.134;-1.948;2023-07-09T05:06:02;25.30;54.50
74520;DHT22;63002;48.134;-1.948;2023-07-09T05:08:28;25.40;54.50
74520;DHT22;63002;48.134;-1.948;2023-07-09T05:10:55;25.40;54.40
74520;DHT22;63002;48.134;-1.948;2023-07-09T05:13:21;25.30;54.50
74520;DHT22;63002;48.134;-1.948;2023-07-09T05:15:47;25.30;54.40
74520;DHT22;63002;48.134;-1.948;2023-07-09T05:18:14;25.40;54.40
74520;DHT22;63002;48.134;-1.948;2023-07-09T05:20:41;25.30;54.50
74520;DHT22;63002;48.134;-1.948;2023-07-09T05:23:09;25.30;54.60
74520;DHT22;63002;48.134;-1.948;2023-07-09T05:25:34;25.30;54.60
74520;DHT22;63002;48.134;-1.948;2023-07-09T05:28:00;25.30;54.60
74520;DHT22;63002;48.134;-1.948;2023-07-09T05:30:26;25.20;54.60
74520;DHT22;63002;48.134;-1.948;2023-07-09T05:32:52;25.30;54.60
74520;DHT22;63002;48.134;-1.948;2023-07-09T05:35:21;25.20;54.70
74520;DHT22;63002;48.134;-1.948;2023-07-09T05:37:47;25.20;54.60
74520;DHT22;63002;48.134;-1.948;2023-07-09T05:40:13;25.20;54.70
74520;DHT22;63002;48.134;-1.948;2023-07-09T05:42:38;25.30;54.70
74520;DHT22;63002;48.134;-1.948;2023-07-09T05:45:05;25.20;54.70
74520;DHT22;63002;48.134;-1.948;2023-07-09T05:47:30;25.20;54.70
74520;DHT22;63002;48.134;-1.948;2023-07-09T05:49:56;25.20;54.80
74520;DHT22;63002;48.134;-1.948;2023-07-09T05:52:23;25.20;54.70
74520;DHT22;63002;48.134;-1.948;2023-07-09T05:54:50;25.20;54.80
74520;DHT22;63002;48.134;-1.948;2023-07-09T05:57:16;25.20;54.80
74520;DHT22;63002;48.134;-1.948;2023-07-09T05:59:42;25.20;54.90
74520;DHT22;63002;48.134;-1.948;2023-07-09T06:02:16;25.20;55.00
74520;DHT22;63002;48.134;-1.948;2023-07-09T06:04:42;25.20;54.90
74520;DHT22;63002;48.134;-1.948;2023-07-09T06:07:08;25.20;54.90
74520;DHT22;63002;48.134;-1.948;2023-07-09T06:09:35;25.20;55.10
74520;DHT22;63002;48.134;-1.948;2023-07-09T06:12:04;25.20;55.10
74520;DHT22;63002;48.134;-1.948;2023-07-09T06:14:31;25.20;55.00
74520;DHT22;63002;48.134;-1.948;2023-07-09T06:16:58;25.20;55.00
74520;DHT22;63002;48.134;-1.948;2023-07-09T06:19:24;25.20;55.10
74520;DHT22;63002;48.134;-1.948;2023-07-09T06:21:49;25.20;55.30
74520;DHT22;63002;48.134;-1.948;2023-07-09T06:24:15;25.20;55.20
74520;DHT22;63002;48.134;-1.948;2023-07-09T06:26:41;25.20;55.10
74520;DHT22;63002;48.134;-1.948;2023-07-09T06:29:06;25.20;55.10
74520;DHT22;63002;48.134;-1.948;2023-07-09T06:31:32;25.20;55.20
74520;DHT22;63002;48.134;-1.948;2023-07-09T06:33:58;25.20;55.20
74520;DHT22;63002;48.134;-1.948;2023-07-09T06:36:24;25.20;55.20
74520;DHT22;63002;48.134;-1.948;2023-07-09T06:38:50;25.20;55.10
74520;DHT22;63002;48.134;-1.948;2023-07-09T06:41:16;25.20;55.20
74520;DHT22;63002;48.134;-1.948;2023-07-09T06:43:42;25.20;55.30
74520;DHT22;63002;48.134;-1.948;2023-07-09T06:46:10;25.10;55.40
74520;DHT22;63002;48.134;-1.948;2023-07-09T06:48:36;25.10;55.40
74520;DHT22;63002;48.134;-1.948;2023-07-09T06:51:02;25.10;55.30
74520;DHT22;63002;48.134;-1.948;2023-07-09T06:53:29;25.10;55.40
74520;DHT22;63002;48.134;-1.948;2023-07-09T06:55:55;25.10;55.50
74520;DHT22;63002;48.134;-1.948;2023-07-09T06:58:25;25.10;55.50
74520;DHT22;63002;48.134;-1.948;2023-07-09T07:00:53;25.10;55.40
74520;DHT22;63002;48.134;-1.948;2023-07-09T07:03:20;25.10;55.60
74520;DHT22;63002;48.134;-1.948;2023-07-09T07:05:47;25.10;55.50
74520;DHT22;63002;48.134;-1.948;2023-07-09T07:08:17;25.10;55.60
74520;DHT22;63002;48.134;-1.948;2023-07-09T07:10:50;25.10;55.60
74520;DHT22;63002;48.134;-1.948;2023-07-09T07:13:16;25.10;55.60
74520;DHT22;63002;48.134;-1.948;2023-07-09T07:15:47;25.10;55.70
74520;DHT22;63002;48.134;-1.948;2023-07-09T07:18:13;25.10;55.70
74520;DHT22;63002;48.134;-1.948;2023-07-09T07:20:39;25.10;55.60
74520;DHT22;63002;48.134;-1.948;2023-07-09T07:23:05;25.10;55.70
74520;DHT22;63002;48.134;-1.948;2023-07-09T07:25:32;25.10;55.60
74520;DHT22;63002;48.134;-1.948;2023-07-09T07:27:58;25.10;55.60
74520;DHT22;63002;48.134;-1.948;2023-07-09T07:30:24;25.10;55.70
74520;DHT22;63002;48.134;-1.948;2023-07-09T07:32:50;25.10;55.70
74520;DHT22;63002;48.134;-1.948;2023-07-09T07:35:16;25.10;55.70
74520;DHT22;63002;48.134;-1.948;2023-07-09T07:37:42;25.10;55.80
74520;DHT22;63002;48.134;-1.948;2023-07-09T07:40:09;25.10;55.70
74520;DHT22;63002;48.134;-1.948;2023-07-09T07:42:36;25.10;55.80
74520;DHT22;63002;48.134;-1.948;2023-07-09T07:45:02;25.00;56.90
74520;DHT22;63002;48.134;-1.948;2023-07-09T07:47:29;24.90;57.20
74520;DHT22;63002;48.134;-1.948;2023-07-09T07:49:56;24.90;56.80
74520;DHT22;63002;48.134;-1.948;2023-07-09T07:52:23;25.00;56.50
74520;DHT22;63002;48.134;-1.948;2023-07-09T07:54:49;25.00;56.50
74520;DHT22;63002;48.134;-1.948;2023-07-09T07:57:15;25.10;56.20
74520;DHT22;63002;48.134;-1.948;2023-07-09T07:59:40;25.10;56.40
74520;DHT22;63002;48.134;-1.948;2023-07-09T08:02:11;25.10;56.30
74520;DHT22;63002;48.134;-1.948;2023-07-09T08:04:38;25.10;56.30
74520;DHT22;63002;48.134;-1.948;2023-07-09T08:07:04;25.00;56.60
74520;DHT22;63002;48.134;-1.948;2023-07-09T08:09:30;24.80;57.70
74520;DHT22;63002;48.134;-1.948;2023-07-09T08:11:56;24.90;58.10
74520;DHT22;63002;48.134;-1.948;2023-07-09T08:14:23;24.80;58.50
74520;DHT22;63002;48.134;-1.948;2023-07-09T08:16:48;24.80;58.70
74520;DHT22;63002;48.134;-1.948;2023-07-09T08:19:18;24.70;59.00
74520;DHT22;63002;48.134;-1.948;2023-07-09T08:21:45;24.70;59.20
74520;DHT22;63002;48.134;-1.948;2023-07-09T08:24:11;24.70;59.10
74520;DHT22;63002;48.134;-1.948;2023-07-09T08:26:37;24.80;58.70
74520;DHT22;63002;48.134;-1.948;2023-07-09T08:29:03;24.90;58.50
74520;DHT22;63002;48.134;-1.948;2023-07-09T08:31:30;24.90;58.20
74520;DHT22;63002;48.134;-1.948;2023-07-09T08:33:56;25.00;57.70
74520;DHT22;63002;48.134;-1.948;2023-07-09T08:36:22;25.10;57.40
74520;DHT22;63002;48.134;-1.948;2023-07-09T08:38:48;25.10;57.20
74520;DHT22;63002;48.134;-1.948;2023-07-09T08:41:33;25.10;57.20
74520;DHT22;63002;48.134;-1.948;2023-07-09T08:49:57;25.20;56.70
74520;DHT22;63002;48.134;-1.948;2023-07-09T08:55:05;25.30;56.50
74520;DHT22;63002;48.134;-1.948;2023-07-09T08:57:37;25.30;56.50
74520;DHT22;63002;48.134;-1.948;2023-07-09T09:00:29;25.30;56.50
74520;DHT22;63002;48.134;-1.948;2023-07-09T09:03:10;25.30;56.30
74520;DHT22;63002;48.134;-1.948;2023-07-09T09:05:41;25.20;58.40
74520;DHT22;63002;48.134;-1.948;2023-07-09T09:08:33;25.00;59.30
74520;DHT22;63002;48.134;-1.948;2023-07-09T09:11:19;24.90;59.80
74520;DHT22;63002;48.134;-1.948;2023-07-09T09:13:48;25.00;59.40
74520;DHT22;63002;48.134;-1.948;2023-07-09T09:16:28;25.00;58.80
74520;DHT22;63002;48.134;-1.948;2023-07-09T09:19:01;25.10;58.20
74520;DHT22;63002;48.134;-1.948;2023-07-09T09:21:33;25.20;57.80
74520;DHT22;63002;48.134;-1.948;2023-07-09T09:27:24;25.20;57.90
74520;DHT22;63002;48.134;-1.948;2023-07-09T09:29:51;25.30;57.90
74520;DHT22;63002;48.134;-1.948;2023-07-09T09:32:28;25.30;57.70
74520;DHT22;63002;48.134;-1.948;2023-07-09T09:34:56;25.40;57.80
74520;DHT22;63002;48.134;-1.948;2023-07-09T09:37:30;25.40;57.60
74520;DHT22;63002;48.134;-1.948;2023-07-09T09:39:59;25.40;57.70
74520;DHT22;63002;48.134;-1.948;2023-07-09T09:42:35;25.40;57.60
74520;DHT22;63002;48.134;-1.948;2023-07-09T09:45:12;25.50;57.60
74520;DHT22;63002;48.134;-1.948;2023-07-09T09:47:40;25.50;57.50
74520;DHT22;63002;48.134;-1.948;2023-07-09T09:50:13;25.50;57.60
74520;DHT22;63002;48.134;-1.948;2023-07-09T09:52:40;25.60;57.50
74520;DHT22;63002;48.134;-1.948;2023-07-09T09:55:18;25.60;57.50
74520;DHT22;63002;48.134;-1.948;2023-07-09T09:57:57;25.60;57.50
74520;DHT22;63002;48.134;-1.948;2023-07-09T10:00:28;25.60;57.50
74520;DHT22;63002;48.134;-1.948;2023-07-09T10:03:04;25.60;57.50
74520;DHT22;63002;48.134;-1.948;2023-07-09T10:05:47;25.60;57.60
74520;DHT22;63002;48.134;-1.948;2023-07-09T10:08:42;25.60;57.50
74520;DHT22;63002;48.134;-1.948;2023-07-09T10:11:38;25.70;57.40
74520;DHT22;63002;48.134;-1.948;2023-07-09T10:17:38;25.40;58.60
74520;DHT22;63002;48.134;-1.948;2023-07-09T10:20:30;25.30;58.80
74520;DHT22;63002;48.134;-1.948;2023-07-09T10:25:57;25.20;58.80
74520;DHT22;63002;48.134;-1.948;2023-07-09T10:33:56;25.40;58.00
74520;DHT22;63002;48.134;-1.948;2023-07-09T10:36:59;25.40;57.80
74520;DHT22;63002;48.134;-1.948;2023-07-09T10:39:45;25.40;57.80
74520;DHT22;63002;48.134;-1.948;2023-07-09T10:42:24;25.20;58.60
74520;DHT22;63002;48.134;-1.948;2023-07-09T10:45:23;25.00;59.20
74520;DHT22;63002;48.134;-1.948;2023-07-09T10:48:16;25.10;59.10
74520;DHT22;63002;48.134;-1.948;2023-07-09T10:50:53;25.30;58.30
74520;DHT22;63002;48.134;-1.948;2023-07-09T10:53:56;25.30;58.00
74520;DHT22;63002;48.134;-1.948;2023-07-09T10:56:27;25.30;57.70
74520;DHT22;63002;48.134;-1.948;2023-07-09T11:01:31;25.50;57.30
74520;DHT22;63002;48.134;-1.948;2023-07-09T11:07:11;25.30;57.80
74520;DHT22;63002;48.134;-1.948;2023-07-09T11:09:43;25.30;57.90
74520;DHT22;63002;48.134;-1.948;2023-07-09T11:12:12;25.40;57.40
74520;DHT22;63002;48.134;-1.948;2023-07-09T11:14:49;25.50;56.50
74520;DHT22;63002;48.134;-1.948;2023-07-09T11:17:19;25.40;56.40
74520;DHT22;63002;48.134;-1.948;2023-07-09T11:19:47;25.30;56.50
74520;DHT22;63002;48.134;-1.948;2023-07-09T11:22:20;25.40;56.20
74520;DHT22;63002;48.134;-1.948;2023-07-09T11:24:49;25.40;56.30
74520;DHT22;63002;48.134;-1.948;2023-07-09T11:27:26;25.50;55.70
74520;DHT22;63002;48.134;-1.948;2023-07-09T11:30:01;25.40;55.60
74520;DHT22;63002;48.134;-1.948;2023-07-09T11:32:28;25.40;55.10
74520;DHT22;63002;48.134;-1.948;2023-07-09T11:35:07;25.40;54.80
74520;DHT22;63002;48.134;-1.948;2023-07-09T11:37:44;25.40;55.20
74520;DHT22;63002;48.134;-1.948;2023-07-09T11:40:12;25.40;55.60
74520;DHT22;63002;48.134;-1.948;2023-07-09T11:42:59;25.40;55.50
74520;DHT22;63002;48.134;-1.948;2023-07-09T11:45:30;25.40;55.50
74520;DHT22;63002;48.134;-1.948;2023-07-09T11:50:35;25.40;55.80
74520;DHT22;63002;48.134;-1.948;2023-07-09T11:53:18;25.50;55.80
74520;DHT22;63002;48.134;-1.948;2023-07-09T11:55:46;25.40;54.40
74520;DHT22;63002;48.134;-1.948;2023-07-09T11:58:18;25.30;54.00
74520;DHT22;63002;48.134;-1.948;2023-07-09T12:00:52;25.20;53.70
74520;DHT22;63002;48.134;-1.948;2023-07-09T12:03:34;25.30;54.00
74520;DHT22;63002;48.134;-1.948;2023-07-09T12:06:13;25.40;53.90
74520;DHT22;63002;48.134;-1.948;2023-07-09T12:08:42;25.50;53.40
74520;DHT22;63002;48.134;-1.948;2023-07-09T12:11:29;25.40;53.90
74520;DHT22;63002;48.134;-1.948;2023-07-09T12:14:05;25.50;53.60
74520;DHT22;63002;48.134;-1.948;2023-07-09T12:16:38;25.50;54.00
74520;DHT22;63002;48.134;-1.948;2023-07-09T12:19:04;25.60;54.20
74520;DHT22;63002;48.134;-1.948;2023-07-09T12:21:30;25.70;54.20
74520;DHT22;63002;48.134;-1.948;2023-07-09T12:23:57;25.80;54.20
74520;DHT22;63002;48.134;-1.948;2023-07-09T12:26:23;25.70;53.20
74520;DHT22;63002;48.134;-1.948;2023-07-09T12:28:53;25.60;53.10
74520;DHT22;63002;48.134;-1.948;2023-07-09T12:31:25;25.50;53.40
74520;DHT22;63002;48.134;-1.948;2023-07-09T12:33:57;25.50;53.70
74520;DHT22;63002;48.134;-1.948;2023-07-09T12:36:27;25.60;53.80
74520;DHT22;63002;48.134;-1.948;2023-07-09T12:39:00;25.60;53.80
74520;DHT22;63002;48.134;-1.948;2023-07-09T12:41:35;25.70;53.80
74520;DHT22;63002;48.134;-1.948;2023-07-09T12:44:01;25.70;53.90
74520;DHT22;63002;48.134;-1.948;2023-07-09T12:46:28;25.70;53.90
74520;DHT22;63002;48.134;-1.948;2023-07-09T12:48:55;25.70;54.10
74520;DHT22;63002;48.134;-1.948;2023-07-09T12:51:24;25.60;54.00
74520;DHT22;63002;48.134;-1.948;2023-07-09T12:54:19;25.60;54.00
74520;DHT22;63002;48.134;-1.948;2023-07-09T12:56:49;25.60;54.10
74520;DHT22;63002;48.134;-1.948;2023-07-09T12:59:20;25.70;54.00
74520;DHT22;63002;48.134;-1.948;2023-07-09T13:01:49;25.70;54.00
74520;DHT22;63002;48.134;-1.948;2023-07-09T13:04:15;25.60;54.40
74520;DHT22;63002;48.134;-1.948;2023-07-09T13:06:43;25.70;54.20
74520;DHT22;63002;48.134;-1.948;2023-07-09T13:09:29;25.60;54.20
74520;DHT22;63002;48.134;-1.948;2023-07-09T13:11:56;25.70;54.40
74520;DHT22;63002;48.134;-1.948;2023-07-09T13:14:28;25.70;54.20
74520;DHT22;63002;48.134;-1.948;2023-07-09T13:17:15;25.80;54.10
74520;DHT22;63002;48.134;-1.948;2023-07-09T13:19:42;25.80;54.10
74520;DHT22;63002;48.134;-1.948;2023-07-09T13:22:10;25.80;54.20
74520;DHT22;63002;48.134;-1.948;2023-07-09T13:24:38;25.80;54.30
74520;DHT22;63002;48.134;-1.948;2023-07-09T13:27:04;25.80;54.30
74520;DHT22;63002;48.134;-1.948;2023-07-09T13:29:33;25.90;54.20
74520;DHT22;63002;48.134;-1.948;2023-07-09T13:31:59;25.90;54.20
74520;DHT22;63002;48.134;-1.948;2023-07-09T13:34:34;25.90;54.10
74520;DHT22;63002;48.134;-1.948;2023-07-09T13:37:00;25.90;54.20
74520;DHT22;63002;48.134;-1.948;2023-07-09T13:39:26;25.90;54.20
74520;DHT22;63002;48.134;-1.948;2023-07-09T13:41:52;25.90;53.20
74520;DHT22;63002;48.134;-1.948;2023-07-09T13:44:24;25.90;52.00
74520;DHT22;63002;48.134;-1.948;2023-07-09T13:46:51;25.90;53.10
74520;DHT22;63002;48.134;-1.948;2023-07-09T13:49:19;25.90;50.70
74520;DHT22;63002;48.134;-1.948;2023-07-09T13:51:47;25.80;50.90
74520;DHT22;63002;48.134;-1.948;2023-07-09T13:54:22;25.80;50.80
74520;DHT22;63002;48.134;-1.948;2023-07-09T13:56:49;25.80;50.60
74520;DHT22;63002;48.134;-1.948;2023-07-09T13:59:19;25.80;50.30
74520;DHT22;63002;48.134;-1.948;2023-07-09T14:01:45;25.70;50.50
74520;DHT22;63002;48.134;-1.948;2023-07-09T14:04:13;25.80;50.40
74520;DHT22;63002;48.134;-1.948;2023-07-09T14:06:40;25.90;50.40
74520;DHT22;63002;48.134;-1.948;2023-07-09T14:09:08;25.80;50.50
74520;DHT22;63002;48.134;-1.948;2023-07-09T14:11:45;25.80;50.40
74520;DHT22;63002;48.134;-1.948;2023-07-09T14:14:21;25.80;50.10
74520;DHT22;63002;48.134;-1.948;2023-07-09T14:16:48;25.70;50.00
74520;DHT22;63002;48.134;-1.948;2023-07-09T14:19:17;25.80;49.70
74520;DHT22;63002;48.134;-1.948;2023-07-09T14:21:43;25.70;49.50
74520;DHT22;63002;48.134;-1.948;2023-07-09T14:24:28;25.70;48.90
74520;DHT22;63002;48.134;-1.948;2023-07-09T14:26:56;25.70;48.70
74520;DHT22;63002;48.134;-1.948;2023-07-09T14:29:23;25.80;49.10
74520;DHT22;63002;48.134;-1.948;2023-07-09T14:31:49;25.80;49.20
74520;DHT22;63002;48.134;-1.948;2023-07-09T14:34:25;25.80;48.90
74520;DHT22;63002;48.134;-1.948;2023-07-09T14:36:54;25.80;48.80
74520;DHT22;63002;48.134;-1.948;2023-07-09T14:39:21;25.80;48.90
74520;DHT22;63002;48.134;-1.948;2023-07-09T14:41:47;25.80;49.10
74520;DHT22;63002;48.134;-1.948;2023-07-09T14:44:30;25.90;49.10
74520;DHT22;63002;48.134;-1.948;2023-07-09T14:46:58;25.90;48.60
74520;DHT22;63002;48.134;-1.948;2023-07-09T14:49:25;25.80;48.40
74520;DHT22;63002;48.134;-1.948;2023-07-09T14:51:52;25.80;48.70
74520;DHT22;63002;48.134;-1.948;2023-07-09T14:54:27;25.80;48.50
74520;DHT22;63002;48.134;-1.948;2023-07-09T14:56:55;25.80;48.10
74520;DHT22;63002;48.134;-1.948;2023-07-09T14:59:21;25.80;47.70
74520;DHT22;63002;48.134;-1.948;2023-07-09T15:01:48;25.80;47.70
74520;DHT22;63002;48.134;-1.948;2023-07-09T15:04:33;25.80;47.80
74520;DHT22;63002;48.134;-1.948;2023-07-09T15:06:59;25.80;47.90
74520;DHT22;63002;48.134;-1.948;2023-07-09T15:09:27;25.80;48.50
74520;DHT22;63002;48.134;-1.948;2023-07-09T15:11:55;25.90;48.90
74520;DHT22;63002;48.134;-1.948;2023-07-09T15:14:23;25.80;49.30
74520;DHT22;63002;48.134;-1.948;2023-07-09T15:16:49;25.90;49.60
74520;DHT22;63002;48.134;-1.948;2023-07-09T15:19:17;25.80;49.70
74520;DHT22;63002;48.134;-1.948;2023-07-09T15:21:44;25.90;49.90
74520;DHT22;63002;48.134;-1.948;2023-07-09T15:26:52;25.90;50.00
74520;DHT22;63002;48.134;-1.948;2023-07-09T15:29:20;25.90;50.10
74520;DHT22;63002;48.134;-1.948;2023-07-09T15:31:46;25.80;48.30
74520;DHT22;63002;48.134;-1.948;2023-07-09T15:34:11;25.90;48.30
74520;DHT22;63002;48.134;-1.948;2023-07-09T15:36:45;25.90;47.90
74520;DHT22;63002;48.134;-1.948;2023-07-09T15:39:11;25.80;47.20
74520;DHT22;63002;48.134;-1.948;2023-07-09T15:41:38;25.80;47.30
74520;DHT22;63002;48.134;-1.948;2023-07-09T15:44:04;25.80;47.40
74520;DHT22;63002;48.134;-1.948;2023-07-09T15:46:30;25.80;47.70
74520;DHT22;63002;48.134;-1.948;2023-07-09T15:48:56;25.90;48.10
74520;DHT22;63002;48.134;-1.948;2023-07-09T15:51:22;25.90;48.30
74520;DHT22;63002;48.134;-1.948;2023-07-09T15:53:48;25.90;48.70
74520;DHT22;63002;48.134;-1.948;2023-07-09T15:56:25;25.90;48.80
74520;DHT22;63002;48.134;-1.948;2023-07-09T15:58:55;25.90;48.70
74520;DHT22;63002;48.134;-1.948;2023-07-09T16:01:21;25.90;48.80
74520;DHT22;63002;48.134;-1.948;2023-07-09T16:03:52;26.00;48.50
74520;DHT22;63002;48.134;-1.948;2023-07-09T16:06:19;26.00;48.10
74520;DHT22;63002;48.134;-1.948;2023-07-09T16:08:46;26.10;47.70
74520;DHT22;63002;48.134;-1.948;2023-07-09T16:11:15;26.10;47.30
74520;DHT22;63002;48.134;-1.948;2023-07-09T16:13:42;26.10;47.10
74520;DHT22;63002;48.134;-1.948;2023-07-09T16:16:19;26.10;47.20
74520;DHT22;63002;48.134;-1.948;2023-07-09T16:18:45;26.10;47.40
74520;DHT22;63002;48.134;-1.948;2023-07-09T16:21:30;26.10;47.40
74520;DHT22;63002;48.134;-1.948;2023-07-09T16:23:58;26.00;47.40
74520;DHT22;63002;48.134;-1.948;2023-07-09T16:26:26;26.10;47.40
74520;DHT22;63002;48.134;-1.948;2023-07-09T16:28:52;26.10;47.30
74520;DHT22;63002;48.134;-1.948;2023-07-09T16:31:18;26.00;46.90
74520;DHT22;63002;48.134;-1.948;2023-07-09T16:33:44;25.90;47.30
74520;DHT22;63002;48.134;-1.948;2023-07-09T16:36:14;25.90;47.60
74520;DHT22;63002;48.134;-1.948;2023-07-09T16:38:41;25.90;47.70
74520;DHT22;63002;48.134;-1.948;2023-07-09T16:41:10;25.90;47.90
74520;DHT22;63002;48.134;-1.948;2023-07-09T16:43:38;25.90;48.20
74520;DHT22;63002;48.134;-1.948;2023-07-09T16:46:23;25.90;48.10
74520;DHT22;63002;48.134;-1.948;2023-07-09T16:48:50;26.00;48.40
74520;DHT22;63002;48.134;-1.948;2023-07-09T16:51:16;26.00;48.70
74520;DHT22;63002;48.134;-1.948;2023-07-09T16:53:42;26.00;48.90
74520;DHT22;63002;48.134;-1.948;2023-07-09T16:56:14;26.00;48.90
74520;DHT22;63002;48.134;-1.948;2023-07-09T16:58:40;26.10;49.00
74520;DHT22;63002;48.134;-1.948;2023-07-09T17:01:07;26.10;48.90
74520;DHT22;63002;48.134;-1.948;2023-07-09T17:03:33;26.10;49.10
74520;DHT22;63002;48.134;-1.948;2023-07-09T17:05:59;26.10;49.20
74520;DHT22;63002;48.134;-1.948;2023-07-09T17:08:24;26.10;49.20
74520;DHT22;63002;48.134;-1.948;2023-07-09T17:10:52;26.10;49.30
74520;DHT22;63002;48.134;-1.948;2023-07-09T17:13:26;26.10;49.30
74520;DHT22;63002;48.134;-1.948;2023-07-09T17:15:53;26.10;48.60
74520;DHT22;63002;48.134;-1.948;2023-07-09T17:18:27;26.10;49.00
74520;DHT22;63002;48.134;-1.948;2023-07-09T17:20:58;26.20;49.10
74520;DHT22;63002;48.134;-1.948;2023-07-09T17:23:25;26.20;49.30
74520;DHT22;63002;48.134;-1.948;2023-07-09T17:25:56;26.20;49.30
74520;DHT22;63002;48.134;-1.948;2023-07-09T17:28:24;26.20;49.20
74520;DHT22;63002;48.134;-1.948;2023-07-09T17:30:52;26.20;49.30
74520;DHT22;63002;48.134;-1.948;2023-07-09T17:33:18;26.10;49.40
74520;DHT22;63002;48.134;-1.948;2023-07-09T17:35:46;26.10;49.40
74520;DHT22;63002;48.134;-1.948;2023-07-09T17:38:34;26.20;49.40
74520;DHT22;63002;48.134;-1.948;2023-07-09T17:41:00;26.20;49.40
74520;DHT22;63002;48.134;-1.948;2023-07-09T17:43:26;26.10;49.30
74520;DHT22;63002;48.134;-1.948;2023-07-09T17:45:53;26.20;48.90
74520;DHT22;63002;48.134;-1.948;2023-07-09T17:48:26;26.20;48.70
74520;DHT22;63002;48.134;-1.948;2023-07-09T17:50:52;26.20;48.70
74520;DHT22;63002;48.134;-1.948;2023-07-09T17:53:21;26.10;48.40
74520;DHT22;63002;48.134;-1.948;2023-07-09T17:55:48;26.10;48.80
74520;DHT22;63002;48.134;-1.948;2023-07-09T17:58:38;26.10;48.80
74520;DHT22;63002;48.134;-1.948;2023-07-09T18:01:05;26.10;48.80
74520;DHT22;63002;48.134;-1.948;2023-07-09T18:03:32;26.10;48.80
74520;DHT22;63002;48.134;-1.948;2023-07-09T18:05:58;26.20;48.80
74520;DHT22;63002;48.134;-1.948;2023-07-09T18:08:24;26.20;48.90
74520;DHT22;63002;48.134;-1.948;2023-07-09T18:10:50;26.20;49.00
74520;DHT22;63002;48.134;-1.948;2023-07-09T18:13:22;26.20;49.10
74520;DHT22;63002;48.134;-1.948;2023-07-09T18:15:50;26.20;49.10
74520;DHT22;63002;48.134;-1.948;2023-07-09T18:18:17;26.20;49.20
74520;DHT22;63002;48.134;-1.948;2023-07-09T18:20:43;26.20;49.30
74520;DHT22;63002;48.134;-1.948;2023-07-09T18:23:09;26.20;48.80
74520;DHT22;63002;48.134;-1.948;2023-07-09T18:25:38;26.20;48.60
74520;DHT22;63002;48.134;-1.948;2023-07-09T18:28:06;26.10;48.80
74520;DHT22;63002;48.134;-1.948;2023-07-09T18:30:35;26.20;49.30
74520;DHT22;63002;48.134;-1.948;2023-07-09T18:33:03;26.40;49.80
74520;DHT22;63002;48.134;-1.948;2023-07-09T18:37:59;26.40;50.10
74520;DHT22;63002;48.134;-1.948;2023-07-09T18:40:26;26.30;49.70
74520;DHT22;63002;48.134;-1.948;2023-07-09T18:42:53;26.40;49.50
74520;DHT22;63002;48.134;-1.948;2023-07-09T18:45:22;26.40;49.40
74520;DHT22;63002;48.134;-1.948;2023-07-09T18:47:48;26.40;49.40
74520;DHT22;63002;48.134;-1.948;2023-07-09T18:50:34;26.40;49.40
74520;DHT22;63002;48.134;-1.948;2023-07-09T18:53:00;26.40;49.40
74520;DHT22;63002;48.134;-1.948;2023-07-09T18:55:27;26.40;49.40
74520;DHT22;63002;48.134;-1.948;2023-07-09T18:57:54;26.40;49.40
74520;DHT22;63002;48.134;-1.948;2023-07-09T19:00:21;26.40;49.50
74520;DHT22;63002;48.134;-1.948;2023-07-09T19:02:50;26.30;49.60
74520;DHT22;63002;48.134;-1.948;2023-07-09T19:05:26;26.30;49.80
74520;DHT22;63002;48.134;-1.948;2023-07-09T19:07:56;26.30;49.80
74520;DHT22;63002;48.134;-1.948;2023-07-09T19:10:25;26.30;49.80
74520;DHT22;63002;48.134;-1.948;2023-07-09T19:12:54;26.30;49.90
74520;DHT22;63002;48.134;-1.948;2023-07-09T19:15:23;26.30;49.90
74520;DHT22;63002;48.134;-1.948;2023-07-09T19:17:50;26.30;49.90
74520;DHT22;63002;48.134;-1.948;2023-07-09T19:20:18;26.20;50.10
74520;DHT22;63002;48.134;-1.948;2023-07-09T19:22:44;26.20;50.10
74520;DHT22;63002;48.134;-1.948;2023-07-09T19:25:16;26.20;50.20
74520;DHT22;63002;48.134;-1.948;2023-07-09T19:27:42;26.20;49.80
74520;DHT22;63002;48.134;-1.948;2023-07-09T19:30:09;26.00;49.40
74520;DHT22;63002;48.134;-1.948;2023-07-09T19:32:35;25.90;49.10
74520;DHT22;63002;48.134;-1.948;2023-07-09T19:35:01;25.90;49.30
74520;DHT22;63002;48.134;-1.948;2023-07-09T19:37:29;25.80;49.20
74520;DHT22;63002;48.134;-1.948;2023-07-09T19:39:55;25.80;49.20
74520;DHT22;63002;48.134;-1.948;2023-07-09T19:42:24;25.80;49.20
74520;DHT22;63002;48.134;-1.948;2023-07-09T19:44:50;25.80;49.30
74520;DHT22;63002;48.134;-1.948;2023-07-09T19:47:21;25.70;49.20
74520;DHT22;63002;48.134;-1.948;2023-07-09T19:49:49;25.70;49.30
74520;DHT22;63002;48.134;-1.948;2023-07-09T19:52:15;25.60;49.40
74520;DHT22;63002;48.134;-1.948;2023-07-09T19:54:42;25.70;49.60
74520;DHT22;63002;48.134;-1.948;2023-07-09T19:57:12;25.70;49.40
74520;DHT22;63002;48.134;-1.948;2023-07-09T19:59:38;25.60;49.30
74520;DHT22;63002;48.134;-1.948;2023-07-09T20:02:24;25.70;49.50
74520;DHT22;63002;48.134;-1.948;2023-07-09T20:04:51;25.60;49.40
74520;DHT22;63002;48.134;-1.948;2023-07-09T20:07:17;25.60;49.60
74520;DHT22;63002;48.134;-1.948;2023-07-09T20:09:43;25.60;49.50
74520;DHT22;63002;48.134;-1.948;2023-07-09T20:12:23;25.60;49.40
74520;DHT22;63002;48.134;-1.948;2023-07-09T20:14:51;25.50;49.40
74520;DHT22;63002;48.134;-1.948;2023-07-09T20:17:17;25.50;49.30
74520;DHT22;63002;48.134;-1.948;2023-07-09T20:19:43;25.50;49.40
74520;DHT22;63002;48.134;-1.948;2023-07-09T20:22:16;25.50;49.30
74520;DHT22;63002;48.134;-1.948;2023-07-09T20:24:43;25.40;49.40
74520;DHT22;63002;48.134;-1.948;2023-07-09T20:27:14;25.40;49.50
74520;DHT22;63002;48.134;-1.948;2023-07-09T20:29:40;25.30;49.40
74520;DHT22;63002;48.134;-1.948;2023-07-09T20:32:18;25.30;49.60
74520;DHT22;63002;48.134;-1.948;2023-07-09T20:34:45;25.30;49.50
74520;DHT22;63002;48.134;-1.948;2023-07-09T20:37:11;25.30;49.50
74520;DHT22;63002;48.134;-1.948;2023-07-09T20:39:38;25.30;49.50
74520;DHT22;63002;48.134;-1.948;2023-07-09T20:42:04;25.40;49.60
74520;DHT22;63002;48.134;-1.948;2023-07-09T20:44:38;25.40;49.70
74520;DHT22;63002;48.134;-1.948;2023-07-09T20:47:18;25.50;49.90
74520;DHT22;63002;48.134;-1.948;2023-07-09T20:49:45;25.50;49.90
74520;DHT22;63002;48.134;-1.948;2023-07-09T20:52:11;25.50;50.10
74520;DHT22;63002;48.134;-1.948;2023-07-09T20:54:38;25.50;50.30
74520;DHT22;63002;48.134;-1.948;2023-07-09T20:57:14;25.50;50.40
74520;DHT22;63002;48.134;-1.948;2023-07-09T20:59:41;25.50;50.50
74520;DHT22;63002;48.134;-1.948;2023-07-09T21:02:33;25.50;50.60
74520;DHT22;63002;48.134;-1.948;2023-07-09T21:04:58;25.50;50.70
74520;DHT22;63002;48.134;-1.948;2023-07-09T21:07:24;25.50;50.70
74520;DHT22;63002;48.134;-1.948;2023-07-09T21:09:50;25.50;50.70